Wallops Island, Wallops Flight Facility Airport (KWAL)

NameWallops Flight Facility Airport
CityWallops Island
CountryUnited States
ICAOKWAL
IATAWAL
Altitude12 m
CoordinatesGoogle Map
Live Air TrafficLiveATC.net
METARKWAL 211454Z 35008KT 10SM FEW250 08/01 A3027 RMK AO2 SLP248 T00830011 51009
2019-11-21 14:54:00 Wind: North-Northwest (350°) 4.12 m/s - Visibility: 16093.4 m - Temperature: 8 °C - Dew point: 1 °C - Humidity: 61.6% - Pressure: 1025.06 hPa

Sorry, no flights used the airport in this database.